Terminal Aerodrome Forecast
Issued by NWS Charleston, WV

Current Version | Previous Version | Graphics & Text | Print | Product List | Glossary On
Versions: 1 2 3 4 5 6 7 8 9 10 11 12 13 14 15 16 17 18 19 20 21 22 23 24 25 26 27
413
FTUS41 KRLX 040532
TAFEKN
TAF
KEKN 040532Z 0406/0506 00000KT 1/2SM FG OVC002
     FM041400 00000KT 3SM BR BKN005
     FM041600 VRB03KT P6SM BKN025=

USA.gov is the U.S. government's official web portal to all federal, state and local government web resources and services.